createdAt,value
2022-10-17T00:00:40.438Z,9.90
2022-10-17T00:02:13.605Z,9.35
2022-10-17T00:03:46.957Z,7.65
2022-10-17T00:05:19.162Z,7.35
2022-10-17T00:06:52.296Z,7.25
2022-10-17T00:08:25.618Z,7.72
2022-10-17T00:09:58.134Z,8.55
2022-10-17T00:11:31.335Z,7.65
2022-10-17T00:13:03.757Z,8.63
2022-10-17T00:14:37.542Z,8.60
2022-10-17T00:16:12.773Z,7.63
2022-10-17T00:17:46.206Z,7.13
2022-10-17T00:19:19.335Z,7.75
2022-10-17T00:20:53.475Z,7.75
2022-10-17T00:22:26.992Z,7.40
2022-10-17T00:24:01.309Z,8.63
2022-10-17T00:25:34.481Z,7.93
2022-10-17T00:27:07.936Z,7.32
2022-10-17T00:28:41.293Z,6.90
2022-10-17T00:30:17.999Z,7.57
2022-10-17T00:31:56.222Z,7.70
2022-10-17T00:33:30.899Z,9.13
2022-10-17T00:35:04.996Z,9.60
2022-10-17T00:36:38.193Z,9.80
2022-10-17T00:38:11.307Z,8.65
2022-10-17T00:39:44.539Z,8.95
2022-10-17T00:41:20.636Z,7.43
2022-10-17T00:42:53.884Z,7.22
2022-10-17T00:45:12.809Z,7.35
2022-10-17T00:46:48.634Z,8.98
2022-10-17T00:48:25.130Z,8.27
2022-10-17T00:49:58.730Z,8.10
2022-10-17T00:51:39.928Z,7.43
2022-10-17T00:53:13.494Z,7.28
2022-10-17T00:54:48.454Z,7.35
2022-10-17T00:56:22.499Z,8.07
2022-10-17T00:57:55.766Z,7.40
2022-10-17T00:59:30.893Z,7.50
2022-10-17T01:01:04.947Z,8.73
2022-10-17T01:02:38.434Z,12.75
2022-10-17T01:04:13.184Z,13.55
2022-10-17T01:05:47.538Z,13.05
2022-10-17T01:07:20.725Z,11.65
2022-10-17T01:08:54.250Z,8.77
2022-10-17T01:10:34.329Z,10.52
2022-10-17T01:12:15.261Z,12.38
2022-10-17T01:13:53.835Z,9.23
2022-10-17T01:15:41.210Z,9.98
2022-10-17T01:17:26.606Z,7.38
2022-10-17T01:19:08.661Z,8.70
2022-10-17T01:21:12.841Z,7.07
2022-10-17T01:22:53.426Z,6.80
2022-10-17T01:24:50.285Z,8.02
2022-10-17T01:26:32.955Z,8.05
2022-10-17T01:28:20.792Z,7.82
2022-10-17T01:30:41.513Z,8.52
2022-10-17T01:32:19.361Z,6.88
2022-10-17T01:34:01.978Z,7.07
2022-10-17T01:35:41.152Z,7.03
2022-10-17T01:37:20.170Z,6.55
2022-10-17T01:38:57.895Z,6.90
2022-10-17T01:40:38.875Z,7.45
2022-10-17T01:42:18.519Z,6.70
2022-10-17T01:43:59.491Z,6.85
2022-10-17T01:45:39.053Z,7.25
2022-10-17T01:47:18.840Z,7.25
2022-10-17T01:48:53.950Z,7.00
2022-10-17T01:50:32.765Z,7.13
2022-10-17T01:52:11.658Z,7.00
2022-10-17T01:53:51.273Z,7.78
2022-10-17T01:55:29.848Z,7.00
2022-10-17T01:57:08.692Z,6.60
2022-10-17T01:58:48.552Z,6.72
2022-10-17T02:00:24.975Z,7.40
2022-10-17T02:02:00.522Z,6.68
2022-10-17T02:03:36.605Z,6.60
2022-10-17T02:05:11.214Z,7.70
2022-10-17T02:06:44.628Z,7.93
2022-10-17T02:08:28.395Z,6.95
2022-10-17T02:10:04.005Z,6.93
2022-10-17T02:11:37.221Z,6.82
2022-10-17T02:13:21.362Z,7.65
2022-10-17T02:15:09.421Z,6.97
2022-10-17T02:16:52.849Z,7.05
2022-10-17T02:18:48.613Z,6.78
2022-10-17T02:20:26.950Z,7.15
2022-10-17T02:22:11.215Z,6.18
2022-10-17T02:23:53.815Z,6.43
2022-10-17T02:25:38.000Z,6.20
2022-10-17T02:27:15.059Z,7.00
2022-10-17T02:28:55.740Z,6.13
2022-10-17T02:30:36.113Z,6.50
2022-10-17T02:32:17.388Z,26.10
2022-10-17T02:33:56.998Z,16.50
2022-10-17T02:35:34.124Z,51.75
2022-10-17T02:37:09.795Z,15.73
2022-10-17T02:38:44.696Z,11.10
2022-10-17T02:40:23.062Z,8.82
2022-10-17T02:42:02.943Z,7.43
2022-10-17T02:43:38.604Z,6.70
2022-10-17T02:45:12.213Z,8.07
2022-10-17T02:46:48.583Z,8.15
2022-10-17T02:48:29.271Z,7.68
2022-10-17T02:50:04.165Z,7.20
2022-10-17T02:51:45.383Z,7.00
2022-10-17T02:53:25.690Z,7.38
2022-10-17T02:55:03.891Z,7.82
2022-10-17T02:56:42.546Z,7.43
2022-10-17T02:58:22.006Z,6.65
2022-10-17T02:59:57.078Z,6.28
2022-10-17T03:01:31.671Z,6.95
2022-10-17T03:03:20.580Z,6.63
2022-10-17T03:04:53.831Z,6.20
2022-10-17T03:06:29.080Z,7.03
2022-10-17T03:08:02.254Z,6.95
2022-10-17T03:09:35.784Z,7.35
2022-10-17T03:11:09.985Z,7.28
2022-10-17T03:12:43.276Z,7.28
2022-10-17T03:14:16.942Z,6.82
2022-10-17T03:15:50.346Z,5.82
2022-10-17T03:17:23.605Z,6.60
2022-10-17T03:18:57.044Z,9.68
2022-10-17T03:20:30.190Z,7.80
2022-10-17T03:22:05.014Z,7.82
2022-10-17T03:23:40.461Z,7.75
2022-10-17T03:25:13.778Z,7.75
2022-10-17T03:28:25.791Z,8.13
2022-10-17T03:29:59.206Z,8.82
2022-10-17T03:31:32.662Z,8.23
2022-10-17T03:33:06.630Z,7.88
2022-10-17T03:34:39.939Z,7.32
2022-10-17T03:36:15.967Z,6.80
2022-10-17T03:37:52.323Z,7.00
2022-10-17T03:39:27.583Z,6.85
2022-10-17T03:41:00.872Z,6.72
2022-10-17T03:42:34.284Z,7.60
2022-10-17T03:44:07.728Z,7.10
2022-10-17T03:45:40.883Z,6.97
2022-10-17T03:47:14.399Z,7.70
2022-10-17T03:48:48.220Z,8.63
2022-10-17T03:50:22.888Z,7.32
2022-10-17T03:51:56.279Z,8.43
2022-10-17T03:53:35.225Z,8.18
2022-10-17T03:55:09.269Z,7.65
2022-10-17T03:56:43.601Z,9.43
2022-10-17T03:58:19.992Z,8.50
2022-10-17T03:59:53.307Z,8.13
2022-10-17T04:01:27.876Z,7.47
2022-10-17T04:03:01.954Z,7.68
2022-10-17T04:04:35.143Z,8.13
2022-10-17T04:06:13.356Z,8.02
2022-10-17T04:07:49.629Z,7.30
2022-10-17T04:09:27.109Z,6.85
2022-10-17T04:11:08.886Z,12.07
2022-10-17T04:12:42.169Z,12.55
2022-10-17T04:14:16.097Z,11.88
2022-10-17T04:15:56.322Z,11.73
2022-10-17T04:17:35.907Z,11.52
2022-10-17T04:19:14.507Z,11.32
2022-10-17T04:20:51.948Z,12.13
2022-10-17T04:22:26.255Z,12.25
2022-10-17T04:24:01.659Z,10.10
2022-10-17T04:25:52.073Z,9.23
2022-10-17T04:27:25.279Z,11.50
2022-10-17T04:28:58.689Z,12.80
2022-10-17T04:30:31.971Z,14.48
2022-10-17T04:32:04.565Z,14.13
2022-10-17T04:33:44.767Z,18.73
2022-10-17T04:35:18.227Z,16.08
2022-10-17T04:36:56.526Z,11.10
2022-10-17T04:38:30.955Z,8.48
2022-10-17T04:40:04.455Z,9.02
2022-10-17T04:41:40.785Z,8.65
2022-10-17T04:43:14.056Z,7.93
2022-10-17T04:44:47.543Z,7.70
2022-10-17T04:46:23.033Z,9.55
2022-10-17T04:47:56.372Z,9.07
2022-10-17T04:49:29.617Z,9.27
2022-10-17T04:51:12.117Z,9.10
2022-10-17T04:52:58.245Z,9.18
2022-10-17T04:54:31.520Z,8.00
2022-10-17T04:56:14.868Z,8.32
2022-10-17T04:57:49.425Z,7.97
2022-10-17T04:59:27.328Z,7.68
2022-10-17T05:01:13.401Z,8.32
2022-10-17T05:02:48.528Z,8.23
2022-10-17T05:04:24.762Z,8.05
2022-10-17T05:05:58.179Z,7.25
2022-10-17T05:07:31.491Z,6.47
2022-10-17T05:09:10.014Z,7.05
2022-10-17T05:10:46.227Z,7.32
2022-10-17T05:12:20.348Z,7.38
2022-10-17T05:13:57.865Z,7.18
2022-10-17T05:15:31.344Z,6.97
2022-10-17T05:17:04.617Z,7.43
2022-10-17T05:18:38.029Z,7.45
2022-10-17T05:20:12.392Z,7.70
2022-10-17T05:21:46.485Z,8.77
2022-10-17T05:23:19.702Z,8.20
2022-10-17T05:24:53.049Z,8.73
2022-10-17T05:26:26.758Z,7.80
2022-10-17T05:28:00.110Z,7.32
2022-10-17T05:29:35.746Z,7.30
2022-10-17T05:31:24.850Z,8.10
2022-10-17T05:32:58.069Z,9.02
2022-10-17T05:34:31.362Z,8.65
2022-10-17T05:36:05.559Z,8.30
2022-10-17T05:37:41.964Z,8.52
2022-10-17T05:39:19.612Z,8.50
2022-10-17T05:40:58.558Z,10.77
2022-10-17T05:42:32.883Z,11.63
2022-10-17T05:44:06.831Z,10.82
2022-10-17T05:45:51.050Z,10.60
2022-10-17T05:47:27.083Z,9.93
2022-10-17T05:49:00.391Z,12.20
2022-10-17T05:50:33.691Z,11.70
2022-10-17T05:52:22.090Z,11.15
2022-10-17T05:54:10.309Z,12.40
2022-10-17T05:55:43.721Z,12.63
2022-10-17T05:57:16.918Z,12.77
2022-10-17T05:58:53.231Z,12.65
2022-10-17T06:00:48.519Z,12.05
2022-10-17T06:02:23.853Z,13.05
2022-10-17T06:03:57.104Z,10.57
2022-10-17T06:05:30.826Z,11.63
2022-10-17T06:07:04.953Z,11.77
2022-10-17T06:08:39.958Z,11.85
2022-10-17T06:10:16.626Z,13.80
2022-10-17T06:11:50.191Z,14.30
2022-10-17T06:13:23.747Z,14.23
2022-10-17T06:14:58.974Z,14.02
2022-10-17T06:16:32.873Z,14.15
2022-10-17T06:18:07.484Z,12.82
2022-10-17T06:19:41.572Z,12.98
2022-10-17T06:21:18.276Z,12.25
2022-10-17T06:22:53.586Z,12.90
2022-10-17T06:24:39.757Z,13.32
2022-10-17T06:26:13.198Z,12.25
2022-10-17T06:27:46.904Z,13.57
2022-10-17T06:29:20.526Z,14.80
2022-10-17T06:30:57.305Z,13.20
2022-10-17T06:32:30.819Z,12.00
2022-10-17T06:34:05.810Z,12.77
2022-10-17T06:35:39.022Z,10.43
2022-10-17T06:37:12.274Z,11.60
2022-10-17T06:38:47.506Z,12.25
2022-10-17T06:40:27.580Z,12.75
2022-10-17T06:42:01.326Z,11.10
2022-10-17T06:44:12.241Z,11.95
2022-10-17T06:46:03.743Z,11.60
2022-10-17T06:47:45.036Z,10.77
2022-10-17T06:49:42.990Z,11.55
2022-10-17T06:51:45.635Z,11.30
2022-10-17T06:53:22.034Z,12.73
2022-10-17T06:55:19.653Z,13.07
2022-10-17T06:57:05.002Z,11.27
2022-10-17T06:58:56.795Z,11.27
2022-10-17T07:00:33.226Z,10.60
2022-10-17T07:02:06.817Z,9.65
2022-10-17T07:03:40.980Z,11.18
2022-10-17T07:05:15.663Z,8.75
2022-10-17T07:06:49.244Z,10.85
2022-10-17T07:08:26.560Z,10.68
2022-10-17T07:09:59.910Z,9.65
2022-10-17T07:11:33.837Z,9.60
2022-10-17T07:13:07.059Z,8.75
2022-10-17T07:14:42.208Z,8.98
2022-10-17T07:16:16.910Z,8.70
2022-10-17T07:17:52.940Z,9.50
2022-10-17T07:19:27.041Z,12.48
2022-10-17T07:21:01.809Z,11.15
2022-10-17T07:22:35.589Z,9.68
2022-10-17T07:24:08.850Z,10.18
2022-10-17T07:25:42.449Z,11.65
2022-10-17T07:27:16.680Z,10.95
2022-10-17T07:28:53.791Z,10.95
2022-10-17T07:30:49.307Z,12.98
2022-10-17T07:32:24.034Z,12.35
2022-10-17T07:34:00.317Z,11.50
2022-10-17T07:35:34.213Z,11.27
2022-10-17T07:37:10.115Z,13.18
2022-10-17T07:38:45.484Z,12.38
2022-10-17T07:40:18.768Z,12.05
2022-10-17T07:41:51.989Z,12.13
2022-10-17T07:43:26.040Z,11.10
2022-10-17T07:45:00.621Z,11.68
2022-10-17T07:46:35.122Z,10.23
2022-10-17T07:48:08.389Z,10.95
2022-10-17T07:49:43.857Z,10.57
2022-10-17T07:51:18.486Z,10.10
2022-10-17T07:52:53.053Z,10.80
2022-10-17T07:54:26.509Z,11.50
2022-10-17T07:56:00.117Z,11.48
2022-10-17T07:57:33.294Z,11.48
2022-10-17T07:59:09.173Z,12.35
2022-10-17T08:00:43.006Z,10.70
2022-10-17T08:02:22.807Z,10.60
2022-10-17T08:03:55.985Z,10.48
2022-10-17T08:05:29.895Z,9.93
2022-10-17T08:07:18.257Z,10.55
2022-10-17T08:08:54.765Z,10.65
2022-10-17T08:10:29.738Z,10.38
2022-10-17T08:12:03.038Z,9.05
2022-10-17T08:13:37.140Z,10.10
2022-10-17T08:15:11.559Z,10.15
2022-10-17T08:16:45.030Z,9.55
2022-10-17T08:18:18.860Z,9.52
2022-10-17T08:19:52.056Z,9.07
2022-10-17T08:21:25.359Z,10.13
2022-10-17T08:22:58.539Z,9.50
2022-10-17T08:24:33.428Z,9.35
2022-10-17T08:26:10.690Z,9.98
2022-10-17T08:27:44.201Z,9.02
2022-10-17T08:29:18.135Z,9.70
2022-10-17T08:30:51.594Z,8.48
2022-10-17T08:32:28.356Z,8.98
2022-10-17T08:34:01.811Z,9.20
2022-10-17T08:35:35.172Z,9.10
2022-10-17T08:37:08.534Z,10.15
2022-10-17T08:38:43.651Z,8.77
2022-10-17T08:40:23.790Z,9.10
2022-10-17T08:42:14.727Z,9.90
2022-10-17T08:44:00.988Z,10.00
2022-10-17T08:45:37.864Z,8.38
2022-10-17T08:47:14.876Z,9.25
2022-10-17T08:48:51.015Z,8.32
2022-10-17T08:50:32.214Z,7.95
2022-10-17T08:52:11.828Z,7.65
2022-10-17T08:53:50.814Z,6.72
2022-10-17T08:55:32.043Z,8.55
2022-10-17T08:57:05.439Z,8.45
2022-10-17T08:58:39.164Z,7.70
2022-10-17T09:00:18.602Z,8.00
2022-10-17T09:01:57.786Z,7.85
2022-10-17T09:03:46.096Z,7.03
2022-10-17T09:05:34.472Z,6.93
2022-10-17T09:07:22.901Z,6.85
2022-10-17T09:09:08.278Z,7.28
2022-10-17T09:10:53.825Z,7.07
2022-10-17T09:12:37.607Z,7.38
2022-10-17T09:14:30.696Z,7.35
2022-10-17T09:16:19.375Z,6.70
2022-10-17T09:17:58.157Z,5.95
2022-10-17T09:19:36.012Z,6.63
2022-10-17T09:21:20.756Z,7.07
2022-10-17T09:22:59.716Z,7.25
2022-10-17T09:24:41.417Z,6.70
2022-10-17T09:26:16.731Z,7.15
2022-10-17T09:27:52.782Z,7.30
2022-10-17T09:29:34.182Z,7.35
2022-10-17T09:31:15.773Z,7.45
2022-10-17T09:32:49.238Z,7.60
2022-10-17T09:34:26.704Z,8.93
2022-10-17T09:36:01.586Z,7.53
2022-10-17T09:37:34.945Z,7.43
2022-10-17T09:39:14.377Z,8.55
2022-10-17T09:40:56.877Z,8.82
2022-10-17T09:42:32.563Z,4.82
2022-10-17T09:44:17.605Z,4.43
2022-10-17T09:46:09.426Z,4.85
2022-10-17T09:47:47.115Z,4.97
2022-10-17T09:49:27.357Z,4.45
2022-10-17T09:51:14.713Z,4.60
2022-10-17T09:52:50.835Z,3.92
2022-10-17T09:54:28.067Z,3.72
2022-10-17T09:56:09.054Z,3.28
2022-10-17T09:57:59.812Z,3.50
2022-10-17T09:59:36.029Z,3.33
2022-10-17T10:01:23.988Z,3.38
2022-10-17T10:03:15.842Z,3.40
2022-10-17T10:05:05.912Z,4.03
2022-10-17T10:06:41.102Z,3.45
2022-10-17T10:08:17.294Z,3.67
2022-10-17T10:09:51.699Z,4.00
2022-10-17T10:11:27.201Z,3.97
2022-10-17T10:13:08.076Z,3.47
2022-10-17T10:14:43.414Z,3.78
2022-10-17T10:16:25.493Z,3.13
2022-10-17T10:17:58.675Z,4.38
2022-10-17T10:19:34.218Z,3.45
2022-10-17T10:21:10.756Z,3.53
2022-10-17T10:22:43.897Z,3.05
2022-10-17T10:24:17.115Z,3.30
2022-10-17T10:25:58.799Z,3.67
2022-10-17T10:29:21.035Z,4.20
2022-10-17T10:32:49.411Z,5.10
2022-10-17T10:34:25.887Z,5.32
2022-10-17T10:36:02.170Z,3.88
2022-10-17T10:37:39.838Z,5.18
2022-10-17T10:39:27.256Z,3.95
2022-10-17T10:41:05.512Z,4.00
2022-10-17T10:42:40.624Z,3.58
2022-10-17T10:44:18.959Z,3.50
2022-10-17T10:45:53.461Z,3.63
2022-10-17T10:47:29.440Z,3.90
2022-10-17T10:49:03.348Z,3.05
2022-10-17T10:50:45.137Z,3.13
2022-10-17T10:52:31.362Z,3.00
2022-10-17T10:54:12.559Z,3.30
2022-10-17T10:55:50.175Z,3.40
2022-10-17T10:57:29.004Z,3.08
2022-10-17T10:59:06.182Z,4.25
2022-10-17T11:00:41.025Z,3.28
2022-10-17T11:02:20.078Z,3.35
2022-10-17T11:04:09.429Z,4.22
2022-10-17T11:05:49.190Z,2.90
2022-10-17T11:07:27.464Z,2.95
2022-10-17T11:09:14.986Z,3.33
2022-10-17T11:11:00.580Z,3.38
2022-10-17T11:12:37.995Z,3.47
2022-10-17T11:14:16.538Z,2.75
2022-10-17T11:15:58.782Z,2.92
2022-10-17T11:17:36.965Z,2.65
2022-10-17T11:19:16.098Z,2.78
2022-10-17T11:20:55.619Z,3.05
2022-10-17T11:22:33.202Z,2.55
2022-10-17T11:24:13.769Z,2.72
2022-10-17T11:25:48.531Z,2.80
2022-10-17T11:27:21.778Z,2.83
2022-10-17T11:28:55.527Z,2.90
2022-10-17T11:30:35.978Z,2.85
2022-10-17T11:32:16.496Z,2.90
2022-10-17T11:33:53.475Z,3.38
2022-10-17T11:35:29.868Z,4.05
2022-10-17T11:37:09.226Z,3.10
2022-10-17T11:38:47.306Z,3.67
2022-10-17T11:40:27.765Z,2.95
2022-10-17T11:42:07.806Z,2.70
2022-10-17T11:43:47.381Z,2.90
2022-10-17T11:45:23.558Z,2.40
2022-10-17T11:47:01.429Z,2.40
2022-10-17T11:48:42.328Z,3.20
2022-10-17T11:52:51.719Z,2.55
2022-10-17T11:54:31.324Z,2.38
2022-10-17T11:56:04.705Z,2.90
2022-10-17T11:57:47.698Z,2.38
2022-10-17T11:59:47.130Z,2.22
2022-10-17T12:01:28.900Z,1.60
2022-10-17T12:03:13.231Z,1.83
2022-10-17T12:05:01.870Z,2.25
2022-10-17T12:06:51.201Z,3.22
2022-10-17T12:08:31.262Z,2.90
2022-10-17T12:10:30.088Z,2.22
2022-10-17T12:12:05.226Z,2.13
2022-10-17T12:13:53.502Z,3.20
2022-10-17T12:15:31.959Z,2.08
2022-10-17T12:17:07.081Z,3.53
2022-10-17T12:18:40.412Z,1.98
2022-10-17T12:20:41.949Z,1.42
2022-10-17T12:22:26.047Z,1.48
2022-10-17T12:23:59.695Z,1.05
2022-10-17T12:25:35.472Z,2.60
2022-10-17T12:27:36.270Z,2.00
2022-10-17T12:29:27.830Z,1.88
2022-10-17T12:31:05.799Z,2.67
2022-10-17T12:33:00.574Z,2.50
2022-10-17T12:34:32.909Z,2.35
2022-10-17T12:36:48.301Z,2.05
2022-10-17T12:38:29.215Z,1.70
2022-10-17T12:40:02.456Z,1.90
2022-10-17T12:41:56.123Z,1.60
2022-10-17T12:43:56.367Z,1.35
2022-10-17T12:45:52.600Z,1.33
2022-10-17T12:47:38.151Z,1.40
2022-10-17T12:49:40.326Z,0.95
2022-10-17T12:51:34.751Z,1.45
2022-10-17T12:53:16.983Z,1.65
2022-10-17T12:55:10.961Z,2.25
2022-10-17T12:56:47.992Z,2.03
2022-10-17T12:58:21.146Z,1.70
2022-10-17T12:59:57.966Z,1.92
2022-10-17T13:01:35.220Z,1.38
2022-10-17T13:03:15.308Z,1.60
2022-10-17T13:04:49.333Z,1.50
2022-10-17T13:06:25.921Z,2.15
2022-10-17T13:08:02.139Z,1.88
2022-10-17T13:09:39.787Z,1.60
2022-10-17T13:11:15.448Z,1.70
2022-10-17T13:12:49.846Z,2.25
2022-10-17T13:14:24.666Z,2.22
2022-10-17T13:15:57.887Z,1.33
2022-10-17T13:17:31.772Z,1.77
2022-10-17T13:19:13.478Z,1.35
2022-10-17T13:20:56.985Z,1.73
2022-10-17T13:22:32.895Z,2.30
2022-10-17T13:24:21.476Z,1.30
2022-10-17T13:26:20.562Z,1.48
2022-10-17T13:28:05.835Z,1.70
2022-10-17T13:29:45.870Z,2.05
2022-10-17T13:31:31.353Z,2.00
2022-10-17T13:33:05.066Z,1.80
2022-10-17T13:34:38.811Z,1.80
2022-10-17T13:36:18.981Z,1.48
2022-10-17T13:37:54.182Z,1.88
2022-10-17T13:39:52.508Z,2.33
2022-10-17T13:41:37.195Z,1.70
2022-10-17T13:43:17.046Z,1.50
2022-10-17T13:44:50.660Z,1.80
2022-10-17T13:46:37.206Z,1.70
2022-10-17T13:48:23.977Z,1.70
2022-10-17T13:49:59.047Z,1.55
2022-10-17T13:51:32.595Z,1.40
2022-10-17T13:53:16.806Z,1.90
2022-10-17T13:54:53.778Z,1.40
2022-10-17T13:56:31.020Z,2.40
2022-10-17T13:58:15.753Z,2.78
2022-10-17T13:59:51.554Z,1.58
2022-10-17T14:01:26.848Z,2.50
2022-10-17T14:03:00.026Z,2.28
2022-10-17T14:04:56.642Z,1.80
2022-10-17T14:06:28.249Z,1.60
2022-10-17T14:08:14.241Z,2.83
2022-10-17T14:09:50.457Z,2.45
2022-10-17T14:11:33.768Z,2.63
2022-10-17T14:13:08.726Z,2.03
2022-10-17T14:15:09.425Z,2.00
2022-10-17T14:16:43.925Z,1.90
2022-10-17T14:18:22.000Z,3.55
2022-10-17T14:20:14.072Z,2.10
2022-10-17T14:21:54.456Z,3.80
2022-10-17T14:23:34.005Z,3.15
2022-10-17T14:25:07.796Z,2.15
2022-10-17T14:26:50.311Z,2.20
2022-10-17T14:28:24.256Z,2.50
2022-10-17T14:30:00.835Z,2.83
2022-10-17T14:31:36.335Z,2.47
2022-10-17T14:33:15.321Z,2.80
2022-10-17T14:35:01.415Z,2.55
2022-10-17T14:36:44.067Z,4.07
2022-10-17T14:38:19.198Z,4.00
2022-10-17T14:39:55.138Z,3.15
2022-10-17T14:41:42.281Z,3.25
2022-10-17T14:43:23.851Z,2.90
2022-10-17T14:45:06.456Z,2.90
2022-10-17T14:46:50.471Z,2.40
2022-10-17T14:48:26.144Z,2.45
2022-10-17T14:50:08.522Z,2.15
2022-10-17T14:51:56.514Z,2.90
2022-10-17T14:53:35.386Z,2.17
2022-10-17T14:55:23.756Z,2.17
2022-10-17T14:56:56.923Z,1.70
2022-10-17T14:58:33.775Z,2.85
2022-10-17T15:00:08.151Z,1.95
2022-10-17T15:01:41.576Z,2.45
2022-10-17T15:03:14.833Z,2.30
2022-10-17T15:04:48.035Z,3.95
2022-10-17T15:06:21.718Z,3.67
2022-10-17T15:07:55.121Z,3.83
2022-10-17T15:09:29.040Z,4.20
2022-10-17T15:11:02.291Z,3.90
2022-10-17T15:12:35.664Z,5.88
2022-10-17T15:14:10.303Z,6.15
2022-10-17T15:15:44.513Z,5.05
2022-10-17T15:17:20.829Z,7.28
2022-10-17T15:18:55.020Z,9.50
2022-10-17T15:20:30.458Z,8.05
2022-10-17T15:22:03.826Z,6.72
2022-10-17T15:23:37.068Z,6.72
2022-10-17T15:25:10.865Z,7.82
2022-10-17T15:26:44.198Z,7.95
2022-10-17T15:28:17.392Z,7.80
2022-10-17T15:29:53.115Z,9.98
2022-10-17T15:31:27.690Z,8.88
2022-10-17T15:33:01.172Z,9.00
2022-10-17T15:34:34.471Z,9.30
2022-10-17T15:36:19.698Z,6.93
2022-10-17T15:37:53.334Z,9.35
2022-10-17T15:39:26.803Z,12.40
2022-10-17T15:40:59.900Z,10.43
2022-10-17T15:42:33.202Z,12.75
2022-10-17T15:44:06.779Z,9.10
2022-10-17T15:45:41.328Z,9.32
2022-10-17T15:47:23.605Z,8.43
2022-10-17T15:48:57.831Z,11.60
2022-10-17T15:50:31.220Z,12.43
2022-10-17T15:52:05.789Z,14.10
2022-10-17T15:53:38.975Z,9.57
2022-10-17T15:55:12.569Z,22.33
2022-10-17T15:56:53.782Z,11.93
2022-10-17T15:58:28.455Z,9.02
2022-10-17T16:00:01.946Z,7.97
2022-10-17T16:01:44.104Z,7.00
2022-10-17T16:03:17.286Z,9.32
2022-10-17T16:04:51.970Z,7.63
2022-10-17T16:06:26.087Z,29.02
2022-10-17T16:07:59.389Z,20.92
2022-10-17T16:09:33.486Z,7.97
2022-10-17T16:11:06.974Z,6.25
2022-10-17T16:12:41.383Z,5.53
2022-10-17T16:14:16.501Z,5.53
2022-10-17T16:15:49.884Z,5.20
2022-10-17T16:17:24.479Z,4.80
2022-10-17T16:18:57.613Z,7.38
2022-10-17T16:20:31.829Z,15.13
2022-10-17T16:22:06.387Z,10.93
2022-10-17T16:23:39.581Z,10.05
2022-10-17T16:25:20.150Z,6.97
2022-10-17T16:26:53.425Z,5.70
2022-10-17T16:28:26.790Z,7.53
2022-10-17T16:30:00.013Z,6.82
2022-10-17T16:31:36.048Z,5.63
2022-10-17T16:33:11.042Z,10.18
2022-10-17T16:34:44.351Z,8.55
2022-10-17T16:36:17.739Z,4.53
2022-10-17T16:37:51.273Z,4.63
2022-10-17T16:39:24.574Z,4.28
2022-10-17T16:40:58.094Z,4.22
2022-10-17T16:42:31.784Z,5.57
2022-10-17T16:44:06.902Z,6.72
2022-10-17T16:45:41.324Z,9.38
2022-10-17T16:47:14.712Z,9.50
2022-10-17T16:48:49.836Z,8.38
2022-10-17T16:50:23.115Z,10.13
2022-10-17T16:51:56.462Z,8.02
2022-10-17T16:53:29.998Z,9.30
2022-10-17T16:55:03.350Z,7.00
2022-10-17T16:56:36.549Z,5.78
2022-10-17T16:58:09.846Z,5.65
2022-10-17T16:59:43.143Z,8.10
2022-10-17T17:01:18.508Z,11.73
2022-10-17T17:02:51.754Z,12.45
2022-10-17T17:04:26.665Z,14.00
2022-10-17T17:05:59.916Z,14.23
2022-10-17T17:07:33.803Z,13.63
2022-10-17T17:09:08.688Z,12.07
2022-10-17T17:10:45.914Z,11.18
2022-10-17T17:12:19.287Z,12.65
2022-10-17T17:13:53.068Z,14.27
2022-10-17T17:15:26.269Z,14.40
2022-10-17T17:16:59.582Z,16.05
2022-10-17T17:18:32.962Z,15.73
2022-10-17T17:20:08.434Z,16.85
2022-10-17T17:21:43.222Z,26.40
2022-10-17T17:23:16.514Z,40.05
2022-10-17T17:26:29.891Z,29.77
2022-10-17T17:28:03.650Z,39.65
2022-10-17T17:29:36.979Z,36.70
2022-10-17T17:31:12.737Z,32.00
2022-10-17T17:32:45.965Z,32.28
2022-10-17T17:34:19.114Z,30.80
2022-10-17T17:35:57.509Z,33.00
2022-10-17T17:37:31.101Z,31.75
2022-10-17T17:39:06.848Z,37.35
2022-10-17T17:40:50.370Z,29.67
2022-10-17T17:42:24.401Z,29.33
2022-10-17T17:43:58.204Z,36.08
2022-10-17T17:45:31.399Z,36.50
2022-10-17T17:47:04.567Z,37.47
2022-10-17T17:48:39.090Z,39.22
2022-10-17T17:50:12.351Z,35.03
2022-10-17T17:51:47.445Z,33.45
2022-10-17T17:53:21.993Z,22.58
2022-10-17T17:54:55.226Z,11.57
2022-10-17T17:56:29.913Z,13.13
2022-10-17T17:58:03.400Z,10.88
2022-10-17T17:59:36.695Z,13.57
2022-10-17T18:01:14.306Z,14.38
2022-10-17T18:02:48.827Z,12.30
2022-10-17T18:04:22.004Z,15.60
2022-10-17T18:05:55.506Z,14.48
2022-10-17T18:07:30.506Z,15.07
2022-10-17T18:09:13.561Z,15.30
2022-10-17T18:10:49.675Z,17.73
2022-10-17T18:12:22.828Z,18.88
2022-10-17T18:13:56.829Z,16.88
2022-10-17T18:15:30.313Z,24.33
2022-10-17T18:17:03.514Z,21.15
2022-10-17T18:18:37.663Z,22.02
2022-10-17T18:20:11.827Z,30.00
2022-10-17T18:21:45.692Z,29.85
2022-10-17T18:23:20.246Z,25.30
2022-10-17T18:24:53.373Z,28.58
2022-10-17T18:26:26.728Z,22.55
2022-10-17T18:28:02.077Z,24.45
2022-10-17T18:29:35.305Z,19.80
2022-10-17T18:31:10.745Z,22.75
2022-10-17T18:32:43.944Z,17.92
2022-10-17T18:34:17.336Z,10.27
2022-10-17T18:35:50.569Z,9.38
2022-10-17T18:37:23.725Z,9.32
2022-10-17T18:39:00.038Z,9.30
2022-10-17T18:40:33.605Z,10.25
2022-10-17T18:42:06.786Z,12.05
2022-10-17T18:43:41.151Z,10.27
2022-10-17T18:45:14.508Z,9.80
2022-10-17T18:46:48.155Z,13.75
2022-10-17T18:48:21.336Z,20.17
2022-10-17T18:49:54.453Z,21.02
2022-10-17T18:51:28.214Z,25.80
2022-10-17T18:53:02.251Z,25.80
2022-10-17T18:54:36.932Z,23.25
2022-10-17T18:56:10.992Z,24.52
2022-10-17T18:57:44.480Z,14.75
2022-10-17T18:59:18.360Z,19.33
2022-10-17T19:00:52.297Z,27.50
2022-10-17T19:02:25.475Z,32.40
2022-10-17T19:04:00.548Z,28.42
2022-10-17T19:05:35.228Z,27.95
2022-10-17T19:07:08.447Z,25.75
2022-10-17T19:08:41.991Z,20.60
2022-10-17T19:10:16.808Z,19.35
2022-10-17T19:11:50.243Z,16.38
2022-10-17T19:13:23.609Z,17.70
2022-10-17T19:14:57.419Z,14.65
2022-10-17T19:16:32.448Z,16.30
2022-10-17T19:18:06.233Z,16.38
2022-10-17T19:19:39.575Z,18.38
2022-10-17T19:21:14.575Z,13.93
2022-10-17T19:22:50.421Z,15.70
2022-10-17T19:24:26.370Z,11.35
2022-10-17T19:26:05.608Z,12.52
2022-10-17T19:27:38.987Z,10.30
2022-10-17T19:29:15.150Z,8.68
2022-10-17T19:30:48.579Z,12.25
2022-10-17T19:32:28.068Z,12.95
2022-10-17T19:34:01.940Z,12.15
2022-10-17T19:35:35.446Z,11.15
2022-10-17T19:37:09.151Z,10.55
2022-10-17T19:38:42.984Z,10.07
2022-10-17T19:40:16.391Z,10.18
2022-10-17T19:41:51.016Z,14.75
2022-10-17T19:43:24.748Z,21.27
2022-10-17T19:44:57.946Z,40.88
2022-10-17T19:46:32.159Z,27.17
2022-10-17T19:48:06.053Z,19.45
2022-10-17T19:49:40.348Z,14.98
2022-10-17T19:51:15.240Z,14.40
2022-10-17T19:52:49.201Z,15.30
2022-10-17T19:54:22.497Z,10.02
2022-10-17T19:55:55.824Z,8.82
2022-10-17T19:57:30.483Z,9.32
2022-10-17T19:59:03.978Z,10.88
2022-10-17T20:00:37.350Z,9.55
2022-10-17T20:02:13.044Z,9.60
2022-10-17T20:03:46.575Z,9.98
2022-10-17T20:05:21.634Z,8.43
2022-10-17T20:06:59.884Z,8.32
2022-10-17T20:08:33.282Z,9.20
2022-10-17T20:10:07.726Z,8.23
2022-10-17T20:11:40.876Z,8.70
2022-10-17T20:13:15.920Z,8.55
2022-10-17T20:14:49.303Z,9.05
2022-10-17T20:16:24.682Z,11.45
2022-10-17T20:17:58.051Z,10.88
2022-10-17T20:19:31.281Z,12.05
2022-10-17T20:21:06.507Z,9.88
2022-10-17T20:22:39.702Z,9.02
2022-10-17T20:24:16.528Z,10.13
2022-10-17T20:26:01.070Z,6.47
2022-10-17T20:27:43.364Z,6.20
2022-10-17T20:29:19.958Z,6.47
2022-10-17T20:30:53.104Z,7.07
2022-10-17T20:32:26.281Z,7.40
2022-10-17T20:34:00.768Z,9.40
2022-10-17T20:35:34.003Z,7.93
2022-10-17T20:37:07.159Z,7.78
2022-10-17T20:38:40.417Z,8.57
2022-10-17T20:40:34.265Z,7.57
2022-10-17T20:42:07.272Z,5.57
2022-10-17T20:43:40.372Z,6.35
2022-10-17T20:45:15.124Z,7.60
2022-10-17T20:47:01.169Z,9.48
2022-10-17T20:48:35.594Z,10.13
2022-10-17T20:50:09.573Z,9.95
2022-10-17T20:51:43.268Z,7.78
2022-10-17T20:53:36.200Z,16.63
2022-10-17T20:55:10.289Z,12.45
2022-10-17T20:56:43.722Z,10.98
2022-10-17T20:58:16.969Z,11.02
2022-10-17T20:59:50.176Z,11.30
2022-10-17T21:01:25.920Z,10.35
2022-10-17T21:02:59.416Z,11.73
2022-10-17T21:04:45.873Z,9.30
2022-10-17T21:06:21.113Z,8.75
2022-10-17T21:07:54.257Z,9.65
2022-10-17T21:09:27.717Z,10.55
2022-10-17T21:11:09.506Z,10.52
2022-10-17T21:12:53.358Z,6.75
2022-10-17T21:14:27.105Z,9.18
2022-10-17T21:16:06.217Z,8.95
2022-10-17T21:17:40.858Z,8.60
2022-10-17T21:19:14.394Z,7.28
2022-10-17T21:20:47.575Z,8.23
2022-10-17T21:22:20.713Z,8.15
2022-10-17T21:23:57.839Z,7.53
2022-10-17T21:25:32.258Z,7.43
2022-10-17T21:27:05.592Z,6.78
2022-10-17T21:28:38.876Z,7.80
2022-10-17T21:30:12.601Z,7.35
2022-10-17T21:31:46.116Z,6.32
2022-10-17T21:33:20.647Z,6.20